EZY87AX EGKK-LEPA
Flight info
| Callsign | EZY87AX |
|---|---|
| Flight time | N/A |
| Altitude | 33000 |
| Route | SFD Y47 DRAKE L151 SITET UN859 SOPIL DCT BALAN DCT EVPOK DCT NARAK DCT GAI DCT LOMRA DCT ROCAN DCT IBRAP DCT LUKEV DCT LORES |
| Aircraft | A320/M-SDE2E3FGHIJ1RWXYZ/LB1 |
Departure
| Time | N/A |
|---|---|
| Airport | London Gatwick Airport (EGKK) |
Arrival
| Time | 2026-05-05 21:54 |
|---|---|
| Airport | Palma de Mallorca Airport (LEPA) |
| Time | Latitude | Longitude | Altitude | Speed | Heading |
|---|---|---|---|---|---|
| 2026-05-05 21:32 | 40.49372 | 2.70776 | 32377 ft | 429 kts | 164° |
| 2026-05-05 21:32 | 40.46736 | 2.72621 | 31425 ft | 428 kts | 161° |
| 2026-05-05 21:32 | 40.44145 | 2.74495 | 30497 ft | 423 kts | 161° |
| 2026-05-05 21:33 | 40.41592 | 2.76354 | 29539 ft | 418 kts | 161° |
| 2026-05-05 21:33 | 40.39064 | 2.78194 | 28551 ft | 412 kts | 161° |
| 2026-05-05 21:33 | 40.36573 | 2.80003 | 27611 ft | 406 kts | 161° |
| 2026-05-05 21:33 | 40.34119 | 2.81784 | 26707 ft | 400 kts | 161° |
| 2026-05-05 21:34 | 40.31699 | 2.83534 | 25822 ft | 395 kts | 161° |
| 2026-05-05 21:34 | 40.29308 | 2.85262 | 24969 ft | 390 kts | 161° |
| 2026-05-05 21:34 | 40.26951 | 2.86962 | 24142 ft | 385 kts | 161° |
| 2026-05-05 21:34 | 40.24618 | 2.88640 | 23306 ft | 380 kts | 161° |
| 2026-05-05 21:35 | 40.22319 | 2.90292 | 22415 ft | 375 kts | 161° |
| 2026-05-05 21:35 | 40.20066 | 2.91913 | 21827 ft | 362 kts | 160° |
| 2026-05-05 21:35 | 40.17896 | 2.93481 | 21280 ft | 351 kts | 160° |
| 2026-05-05 21:35 | 40.15777 | 2.95006 | 20619 ft | 345 kts | 160° |
| 2026-05-05 21:36 | 40.13691 | 2.96501 | 19952 ft | 339 kts | 160° |
| 2026-05-05 21:36 | 40.11637 | 2.97972 | 19299 ft | 334 kts | 160° |
| 2026-05-05 21:36 | 40.09609 | 2.99423 | 18670 ft | 330 kts | 160° |
| 2026-05-05 21:36 | 40.07613 | 3.00849 | 18030 ft | 325 kts | 160° |
| 2026-05-05 21:37 | 40.05638 | 3.02260 | 17306 ft | 322 kts | 160° |
| 2026-05-05 21:37 | 40.03686 | 3.03654 | 16629 ft | 318 kts | 159° |
| 2026-05-05 21:37 | 40.01751 | 3.05032 | 15958 ft | 315 kts | 159° |
| 2026-05-05 21:37 | 39.99834 | 3.06397 | 15298 ft | 313 kts | 159° |
| 2026-05-05 21:38 | 39.97932 | 3.07750 | 14643 ft | 310 kts | 159° |
| 2026-05-05 21:38 | 39.96041 | 3.09097 | 14028 ft | 308 kts | 159° |
| 2026-05-05 21:38 | 39.94158 | 3.10390 | 13374 ft | 302 kts | 164° |
| 2026-05-05 21:38 | 39.92165 | 3.11129 | 12537 ft | 296 kts | 179° |
| 2026-05-05 21:39 | 39.90129 | 3.11147 | 11727 ft | 291 kts | 191° |
| 2026-05-05 21:39 | 39.88115 | 3.10876 | 10973 ft | 292 kts | 190° |
| 2026-05-05 21:39 | 39.86094 | 3.10615 | 10219 ft | 292 kts | 189° |
| 2026-05-05 21:39 | 39.84065 | 3.10361 | 9438 ft | 293 kts | 189° |
| 2026-05-05 21:40 | 39.82054 | 3.10113 | 8860 ft | 286 kts | 189° |
| 2026-05-05 21:40 | 39.80084 | 3.09875 | 8457 ft | 284 kts | 189° |
| 2026-05-05 21:40 | 39.78123 | 3.09639 | 8042 ft | 283 kts | 189° |
| 2026-05-05 21:40 | 39.76168 | 3.09401 | 7632 ft | 282 kts | 188° |
| 2026-05-05 21:41 | 39.74221 | 3.09163 | 7231 ft | 281 kts | 188° |
| 2026-05-05 21:41 | 39.72284 | 3.08868 | 6727 ft | 281 kts | 196° |
| 2026-05-05 21:41 | 39.70557 | 3.07729 | 6042 ft | 283 kts | 225° |
| 2026-05-05 21:41 | 39.69366 | 3.05673 | 5286 ft | 289 kts | 240° |
| 2026-05-05 21:42 | 39.68341 | 3.03425 | 4799 ft | 288 kts | 240° |
| 2026-05-05 21:42 | 39.67319 | 3.01205 | 4400 ft | 284 kts | 240° |
| 2026-05-05 21:42 | 39.66306 | 2.99046 | 4005 ft | 273 kts | 240° |
| 2026-05-05 21:42 | 39.65359 | 2.97033 | 3673 ft | 257 kts | 240° |
| 2026-05-05 21:43 | 39.64459 | 2.95117 | 3362 ft | 241 kts | 240° |
| 2026-05-05 21:43 | 39.63608 | 2.93303 | 3038 ft | 229 kts | 240° |
| 2026-05-05 21:43 | 39.62799 | 2.91581 | 2740 ft | 219 kts | 240° |
| 2026-05-05 21:43 | 39.62023 | 2.89930 | 2457 ft | 210 kts | 240° |
| 2026-05-05 21:44 | 39.61285 | 2.88362 | 2171 ft | 197 kts | 240° |
| 2026-05-05 21:44 | 39.60604 | 2.86916 | 1946 ft | 178 kts | 241° |
| 2026-05-05 21:44 | 39.60183 | 2.86022 | 1793 ft | 166 kts | 240° |
| 2026-05-05 21:44 | 39.59618 | 2.84822 | 1572 ft | 147 kts | 241° |
| 2026-05-05 21:45 | 39.59102 | 2.83724 | 1370 ft | 140 kts | 240° |
| 2026-05-05 21:45 | 39.58599 | 2.82656 | 1188 ft | 138 kts | 240° |
| 2026-05-05 21:45 | 39.58109 | 2.81615 | 1008 ft | 137 kts | 238° |
| 2026-05-05 21:45 | 39.57611 | 2.80560 | 835 ft | 137 kts | 239° |
| 2026-05-05 21:46 | 39.57112 | 2.79500 | 656 ft | 137 kts | 239° |
| 2026-05-05 21:46 | 39.56618 | 2.78447 | 478 ft | 136 kts | 240° |
| 2026-05-05 21:46 | 39.56133 | 2.77395 | 295 ft | 136 kts | 239° |
| 2026-05-05 21:46 | 39.55635 | 2.76354 | 105 ft | 136 kts | 239° |
| 2026-05-05 21:47 | 39.55164 | 2.75357 | 32 ft | 117 kts | 238° |
| 2026-05-05 21:47 | 39.54686 | 2.74345 | 46 ft | 161 kts | 238° |
| 2026-05-05 21:47 | 39.54113 | 2.73104 | 951 ft | 158 kts | 240° |
| 2026-05-05 21:47 | 39.53385 | 2.71926 | 1711 ft | 182 kts | 216° |
| 2026-05-05 21:48 | 39.52111 | 2.71420 | 2080 ft | 209 kts | 181° |
| 2026-05-05 21:48 | 39.50693 | 2.72058 | 2592 ft | 227 kts | 145° |
| 2026-05-05 21:48 | 39.49732 | 2.73698 | 3313 ft | 235 kts | 110° |
| 2026-05-05 21:48 | 39.49550 | 2.75807 | 3856 ft | 241 kts | 80° |
| 2026-05-05 21:49 | 39.50076 | 2.77806 | 3978 ft | 227 kts | 60° |
| 2026-05-05 21:49 | 39.50902 | 2.79500 | 4008 ft | 231 kts | 53° |
| 2026-05-05 21:49 | 39.51864 | 2.81245 | 3936 ft | 241 kts | 52° |
| 2026-05-05 21:49 | 39.52856 | 2.83016 | 3549 ft | 244 kts | 52° |
| 2026-05-05 21:50 | 39.53850 | 2.84793 | 3264 ft | 243 kts | 52° |
| 2026-05-05 21:50 | 39.54846 | 2.86568 | 2922 ft | 244 kts | 52° |
| 2026-05-05 21:50 | 39.55835 | 2.88315 | 2514 ft | 236 kts | 49° |
| 2026-05-05 21:50 | 39.57071 | 2.89490 | 2278 ft | 212 kts | 7° |
| 2026-05-05 21:51 | 39.58383 | 2.89145 | 2121 ft | 184 kts | 318° |
| 2026-05-05 21:51 | 39.59002 | 2.87858 | 1986 ft | 161 kts | 284° |
| 2026-05-05 21:51 | 39.59216 | 2.86534 | 1845 ft | 143 kts | 280° |
| 2026-05-05 21:51 | 39.59361 | 2.85295 | 1589 ft | 137 kts | 272° |
| 2026-05-05 21:52 | 39.58819 | 2.82986 | 1237 ft | 137 kts | 237° |
| 2026-05-05 21:52 | 39.58296 | 2.81967 | 1102 ft | 135 kts | 238° |
| 2026-05-05 21:52 | 39.57784 | 2.80927 | 1003 ft | 131 kts | 243° |
| 2026-05-05 21:53 | 39.57323 | 2.79926 | 890 ft | 131 kts | 243° |
| 2026-05-05 21:53 | 39.56860 | 2.78919 | 715 ft | 129 kts | 240° |
| 2026-05-05 21:53 | 39.56392 | 2.77988 | 412 ft | 122 kts | 238° |
| 2026-05-05 21:53 | 39.55976 | 2.77070 | 238 ft | 118 kts | 239° |
| 2026-05-05 21:54 | 39.55543 | 2.76159 | 87 ft | 119 kts | 240° |
| 2026-05-05 21:54 | 39.55136 | 2.75302 | 31 ft | 97 kts | 239° |
| 2026-05-05 21:54 | 39.54878 | 2.74762 | 30 ft | 43 kts | 238° |
| 2026-05-05 21:54 | 39.54809 | 2.74487 | 30 ft | 26 kts | 261° |
| 2026-05-05 21:55 | 39.54802 | 2.74262 | 30 ft | 24 kts | 269° |
| 2026-05-05 21:55 | 39.54878 | 2.74087 | 30 ft | 24 kts | 328° |
| 2026-05-05 21:55 | 39.54946 | 2.73999 | 30 ft | 9 kts | 256° |
| 2026-05-05 21:55 | 39.54925 | 2.73913 | 30 ft | 11 kts | 248° |
| 2026-05-05 21:56 | 39.54904 | 2.73843 | 30 ft | 3 kts | 250° |
| 2026-05-05 21:56 | 39.54895 | 2.73812 | 30 ft | 1 kts | 249° |
| 2026-05-05 21:56 | 39.54894 | 2.73809 | 30 ft | 0 kts | 249° |